David L. Fields — WDH6464 — position and weather

sailwx.info

Track history (hours):
 
Tides and Currents Weather Stations Pressure Air Temp Water Temp Dewpoint Dewpoint Depression Visibility Wind Speed Wind Dir Waves Ship Positions

David L. Fields

Owner: Marquette Transportation Co. LLC, Paducah, KY. More information available from US FCC via Universal Licensing System and Coast Guard Vessel Documentation Center.

Last reported at 2018-Apr-27 10:18 UTC. Time now 2018-Jun-23 15:21 UTC.
Position N 39°15' W 090°44'.
Warning: this ship's position is 57 days out of date.

Length 41 m; draft 2.7 m.

Type: Tow > 200 m length. MMSI: 367638240.

Date/timePositionNaut miles runAvg speedWind from/ knotsBaromVisibWave heightAir tempDewpointWater temp
2018-Apr-27 10:18N 39°15' W 090°44'2 4.9
2018-Apr-27 09:55N 39°13' W 090°43'2 5.1
2018-Apr-27 09:29N 39°11' W 090°43'2 4.7
2018-Apr-27 09:00N 39°09' W 090°43'2 4.8
2018-Apr-27 08:30N 39°07' W 090°41'0 0.1
2018-Apr-27 08:00N 39°07' W 090°41'0 0.0
2018-Apr-27 07:30N 39°07' W 090°41'0 0.2
2018-Apr-27 07:00N 39°07' W 090°41'3 5.1
2018-Apr-27 06:24N 39°04' W 090°42'2 5.7
2018-Apr-27 06:00N 39°02' W 090°42'2 3.0
2018-Apr-27 05:30N 39°00' W 090°41'0 0.2
2018-Apr-27 05:00N 39°00' W 090°41'0 0.0
2018-Apr-27 04:30N 39°00' W 090°41'0 0.3
2018-Apr-27 04:00N 38°60' W 090°41'0 0.9
2018-Apr-27 03:30N 38°60' W 090°41'2 3.2
2018-Apr-27 02:44N 38°57' W 090°40'1 3.1
2018-Apr-27 02:30N 38°56' W 090°40'0 0.8
2018-Apr-27 02:00N 38°56' W 090°40'0 0.1
2018-Apr-27 01:30N 38°56' W 090°40'1 1.2
2018-Apr-27 01:00N 38°56' W 090°40'2 4.9
2018-Apr-27 00:30N 38°54' W 090°38'2 4.7
2018-Apr-27 00:00N 38°52' W 090°36'2 5.0
2018-Apr-26 23:30N 38°53' W 090°32'2 4.9
2018-Apr-26 23:00N 38°55' W 090°31'2 4.8
2018-Apr-26 22:30N 38°57' W 090°29'2 4.7
2018-Apr-26 22:00N 38°58' W 090°26'2 4.9
2018-Apr-26 21:30N 38°57' W 090°23'3 5.4
2018-Apr-26 21:00N 38°56' W 090°20'3 5.9
2018-Apr-26 20:30N 38°55' W 090°16'3 5.1
2018-Apr-26 20:00N 38°55' W 090°13'3 5.3
2018-Apr-26 19:30N 38°53' W 090°11'1 2.9
2018-Apr-26 18:59N 38°52' W 090°09'0 0.5
2018-Apr-26 18:29N 38°52' W 090°09'1 2.2
2018-Apr-26 18:00N 38°51' W 090°08'0 0.0
2018-Apr-26 17:30N 38°51' W 090°08'0 0.0
2018-Apr-26 17:00N 38°51' W 090°08'0 0.0
2018-Apr-26 16:30N 38°51' W 090°08'0 0.0
2018-Apr-26 16:00N 38°51' W 090°08'0 0.0
2018-Apr-26 15:29N 38°51' W 090°08'0 0.0
2018-Apr-26 15:00N 38°51' W 090°08'0 0.0
2018-Apr-26 14:30N 38°51' W 090°08'0 0.0
2018-Apr-26 14:00N 38°51' W 090°08'0 0.0
2018-Apr-26 13:30N 38°51' W 090°08'0 0.0
2018-Apr-26 13:00N 38°51' W 090°08'0 0.2
2018-Apr-26 12:30N 38°51' W 090°07'2 3.6
2018-Apr-26 12:00N 38°50' W 090°07'2 4.8
2018-Apr-26 11:30N 38°47' W 090°07'1 2.6
2018-Apr-26 11:00N 38°46' W 090°08'3 5.2
2018-Apr-26 10:30N 38°44' W 090°10'2 4.2
2018-Apr-26 10:00N 38°42' W 090°11'0 0.4
2018-Apr-26 09:30N 38°42' W 090°11'1 2.2
2018-Apr-26 09:00N 38°41' W 090°11'3 5.1
2018-Apr-26 08:26N 38°38' W 090°11'5 3.7
2018-Apr-26 06:57N 38°33' W 090°15'2 4.0
2018-Apr-26 06:26N 38°31' W 090°16'7 0.6
2018-Apr-25 19:47N 38°37' W 090°11'3 9.6
2018-Apr-25 19:26N 38°40' W 090°11'3 2.1
2018-Apr-25 17:59N 38°43' W 090°10'1 1.3
2018-Apr-25 17:27N 38°44' W 090°10'0 0.1
2018-Apr-25 17:00N 38°44' W 090°10'0 0.1
2018-Apr-25 16:29N 38°44' W 090°10'0 0.0
2018-Apr-25 16:00N 38°44' W 090°10'0 0.0
2018-Apr-25 15:29N 38°44' W 090°10'0 0.1
2018-Apr-25 14:58N 38°44' W 090°10'1 1.2
2018-Apr-25 14:30N 38°44' W 090°09'2 4.1
2018-Apr-25 13:57N 38°46' W 090°08'2 4.9
2018-Apr-25 13:30N 38°48' W 090°07'3 6.4
2018-Apr-25 13:00N 38°51' W 090°08'1 2.6
2018-Apr-25 12:30N 38°52' W 090°09'0 0.5
2018-Apr-25 12:00N 38°52' W 090°09'1 2.1
2018-Apr-25 11:30N 38°53' W 090°10'2 4.8
2018-Apr-25 11:00N 38°54' W 090°13'1 1.1
2018-Apr-25 10:30N 38°55' W 090°13'0 0.0
2018-Apr-25 10:00N 38°55' W 090°13'0 0.0
2018-Apr-25 09:30N 38°55' W 090°13'0 0.0
2018-Apr-25 09:00N 38°55' W 090°13'0 0.3
2018-Apr-25 08:30N 38°55' W 090°14'3 5.9
2018-Apr-25 08:00N 38°55' W 090°17'4 7.5
2018-Apr-25 07:30N 38°57' W 090°22'3 6.8
2018-Apr-25 07:00N 38°58' W 090°26'3 6.4
2018-Apr-25 06:30N 38°56' W 090°30'3 6.6
2018-Apr-25 06:00N 38°53' W 090°32'3 6.5
2018-Apr-25 05:30N 38°52' W 090°36'3 6.6
2018-Apr-25 05:00N 38°55' W 090°38'3 6.8
2018-Apr-25 04:30N 38°58' W 090°40'3 5.1
2018-Apr-25 04:00N 39°00' W 090°41'0 0.4
2018-Apr-25 03:30N 39°00' W 090°41'0 0.0
2018-Apr-25 03:00N 39°00' W 090°41'0 0.3
2018-Apr-25 02:30N 39°00' W 090°41'0 0.0
2018-Apr-25 02:00N 39°00' W 090°41'0 0.1
2018-Apr-25 01:30N 39°00' W 090°41'0 0.4
2018-Apr-25 01:00N 39°01' W 090°42'0 0.1
2018-Apr-25 00:30N 39°01' W 090°42'2 5.0
2018-Apr-25 00:00N 39°03' W 090°43'0 0.1
2018-Apr-24 23:30N 39°03' W 090°43'6 4.5
2018-Apr-24 22:15N 39°08' W 090°43'  
2018-Apr-18 14:14N 39°10' W 090°43'1 5.0
2018-Apr-18 14:00N 39°08' W 090°42'3 5.2
2018-Apr-18 13:30N 39°06' W 090°41'3 4.9
2018-Apr-18 13:00N 39°04' W 090°42'2 4.6
2018-Apr-18 12:30N 39°02' W 090°42'1 3.0
2018-Apr-18 12:00N 39°00' W 090°41'0 0.3
2018-Apr-18 11:30N 39°00' W 090°41'0 0.0
2018-Apr-18 11:00N 39°00' W 090°41'0 0.7
2018-Apr-18 10:30N 38°60' W 090°41'2 4.3
2018-Apr-18 10:00N 38°58' W 090°40'0 0.7
2018-Apr-18 09:28N 38°57' W 090°40'0 0.0
2018-Apr-18 08:58N 38°57' W 090°40'1 2.2
2018-Apr-18 08:30N 38°56' W 090°40'3 5.1
2018-Apr-18 08:00N 38°54' W 090°38'2 3.3
2018-Apr-18 07:30N 38°53' W 090°37'0 0.1
2018-Apr-18 07:00N 38°53' W 090°37'2 4.7
2018-Apr-18 06:30N 38°52' W 090°34'3 5.4
2018-Apr-18 06:00N 38°54' W 090°31'3 5.2
2018-Apr-18 05:30N 38°56' W 090°30'2 4.5
2018-Apr-18 05:00N 38°57' W 090°28'2 4.9
2018-Apr-18 04:30N 38°58' W 090°25'3 5.4
2018-Apr-18 04:00N 38°57' W 090°21'3 5.6
2018-Apr-18 03:30N 38°55' W 090°18'3 5.8
2018-Apr-18 03:00N 38°55' W 090°14'3 5.4
2018-Apr-18 02:30N 38°53' W 090°12'2 4.8
2018-Apr-18 02:00N 38°52' W 090°09'0 0.7
2018-Apr-18 01:30N 38°52' W 090°09'2 3.1
2018-Apr-18 01:00N 38°51' W 090°07'2 3.4
2018-Apr-18 00:30N 38°50' W 090°07'2 3.1
2018-Apr-18 00:00N 38°48' W 090°07'3 5.8
2018-Apr-17 23:28N 38°45' W 090°09'3 4.8
2018-Apr-17 22:56N 38°43' W 090°10'1 1.7
2018-Apr-17 22:16N 38°42' W 090°11'0 0.5
2018-Apr-17 21:59N 38°42' W 090°11'1 2.3
2018-Apr-17 21:30N 38°41' W 090°11'2 4.6
2018-Apr-17 20:59N 38°38' W 090°11'0 0.2
2018-Apr-17 20:28N 38°38' W 090°11'0 0.0
2018-Apr-17 19:59N 38°38' W 090°11'0 0.0
2018-Apr-17 19:27N 38°38' W 090°11'0 0.0
2018-Apr-17 18:08N 38°38' W 090°11'0 0.0
2018-Apr-17 17:56N 38°38' W 090°11'0 0.1
2018-Apr-17 17:27N 38°38' W 090°11'  
Track history (hours):
 
Tides and Currents Weather Stations Pressure Air Temp Water Temp Dewpoint Dewpoint Depression Visibility Wind Speed Wind Dir Waves Ship Positions

David L. Fields

Owner: Marquette Transportation Co. LLC, Paducah, KY. More information available from US FCC via Universal Licensing System and Coast Guard Vessel Documentation Center.

Last reported at 2018-Apr-27 10:18 UTC. Time now 2018-Jun-23 15:21 UTC.
Position N 39°15' W 090°44'.
Warning: this ship's position is 57 days out of date.

Length 41 m; draft 2.7 m.

Type: Tow > 200 m length. MMSI: 367638240.

Date/timePositionNaut miles runAvg speedWind from/ knotsBaromVisibWave heightAir tempDewpointWater temp
2018-Apr-27 10:18N 39°15' W 090°44'2 4.9
2018-Apr-27 09:55N 39°13' W 090°43'2 5.1
2018-Apr-27 09:29N 39°11' W 090°43'2 4.7
2018-Apr-27 09:00N 39°09' W 090°43'2 4.8
2018-Apr-27 08:30N 39°07' W 090°41'0 0.1
2018-Apr-27 08:00N 39°07' W 090°41'0 0.0
2018-Apr-27 07:30N 39°07' W 090°41'0 0.2
2018-Apr-27 07:00N 39°07' W 090°41'3 5.1
2018-Apr-27 06:24N 39°04' W 090°42'2 5.7
2018-Apr-27 06:00N 39°02' W 090°42'2 3.0
2018-Apr-27 05:30N 39°00' W 090°41'0 0.2
2018-Apr-27 05:00N 39°00' W 090°41'0 0.0
2018-Apr-27 04:30N 39°00' W 090°41'0 0.3
2018-Apr-27 04:00N 38°60' W 090°41'0 0.9
2018-Apr-27 03:30N 38°60' W 090°41'2 3.2
2018-Apr-27 02:44N 38°57' W 090°40'1 3.1
2018-Apr-27 02:30N 38°56' W 090°40'0 0.8
2018-Apr-27 02:00N 38°56' W 090°40'0 0.1
2018-Apr-27 01:30N 38°56' W 090°40'1 1.2
2018-Apr-27 01:00N 38°56' W 090°40'2 4.9
2018-Apr-27 00:30N 38°54' W 090°38'2 4.7
2018-Apr-27 00:00N 38°52' W 090°36'2 5.0
2018-Apr-26 23:30N 38°53' W 090°32'2 4.9
2018-Apr-26 23:00N 38°55' W 090°31'2 4.8
2018-Apr-26 22:30N 38°57' W 090°29'2 4.7
2018-Apr-26 22:00N 38°58' W 090°26'2 4.9
2018-Apr-26 21:30N 38°57' W 090°23'3 5.4
2018-Apr-26 21:00N 38°56' W 090°20'3 5.9
2018-Apr-26 20:30N 38°55' W 090°16'3 5.1
2018-Apr-26 20:00N 38°55' W 090°13'3 5.3
2018-Apr-26 19:30N 38°53' W 090°11'1 2.9
2018-Apr-26 18:59N 38°52' W 090°09'0 0.5
2018-Apr-26 18:29N 38°52' W 090°09'1 2.2
2018-Apr-26 18:00N 38°51' W 090°08'0 0.0
2018-Apr-26 17:30N 38°51' W 090°08'0 0.0
2018-Apr-26 17:00N 38°51' W 090°08'0 0.0
2018-Apr-26 16:30N 38°51' W 090°08'0 0.0
2018-Apr-26 16:00N 38°51' W 090°08'0 0.0
2018-Apr-26 15:29N 38°51' W 090°08'0 0.0
2018-Apr-26 15:00N 38°51' W 090°08'0 0.0
2018-Apr-26 14:30N 38°51' W 090°08'0 0.0
2018-Apr-26 14:00N 38°51' W 090°08'0 0.0
2018-Apr-26 13:30N 38°51' W 090°08'0 0.0
2018-Apr-26 13:00N 38°51' W 090°08'0 0.2
2018-Apr-26 12:30N 38°51' W 090°07'2 3.6
2018-Apr-26 12:00N 38°50' W 090°07'2 4.8
2018-Apr-26 11:30N 38°47' W 090°07'1 2.6
2018-Apr-26 11:00N 38°46' W 090°08'3 5.2
2018-Apr-26 10:30N 38°44' W 090°10'2 4.2
2018-Apr-26 10:00N 38°42' W 090°11'0 0.4
2018-Apr-26 09:30N 38°42' W 090°11'1 2.2
2018-Apr-26 09:00N 38°41' W 090°11'3 5.1
2018-Apr-26 08:26N 38°38' W 090°11'5 3.7
2018-Apr-26 06:57N 38°33' W 090°15'2 4.0
2018-Apr-26 06:26N 38°31' W 090°16'7 0.6
2018-Apr-25 19:47N 38°37' W 090°11'3 9.6
2018-Apr-25 19:26N 38°40' W 090°11'3 2.1
2018-Apr-25 17:59N 38°43' W 090°10'1 1.3
2018-Apr-25 17:27N 38°44' W 090°10'0 0.1
2018-Apr-25 17:00N 38°44' W 090°10'0 0.1
2018-Apr-25 16:29N 38°44' W 090°10'0 0.0
2018-Apr-25 16:00N 38°44' W 090°10'0 0.0
2018-Apr-25 15:29N 38°44' W 090°10'0 0.1
2018-Apr-25 14:58N 38°44' W 090°10'1 1.2
2018-Apr-25 14:30N 38°44' W 090°09'2 4.1
2018-Apr-25 13:57N 38°46' W 090°08'2 4.9
2018-Apr-25 13:30N 38°48' W 090°07'3 6.4
2018-Apr-25 13:00N 38°51' W 090°08'1 2.6
2018-Apr-25 12:30N 38°52' W 090°09'0 0.5
2018-Apr-25 12:00N 38°52' W 090°09'1 2.1
2018-Apr-25 11:30N 38°53' W 090°10'2 4.8
2018-Apr-25 11:00N 38°54' W 090°13'1 1.1
2018-Apr-25 10:30N 38°55' W 090°13'0 0.0
2018-Apr-25 10:00N 38°55' W 090°13'0 0.0
2018-Apr-25 09:30N 38°55' W 090°13'0 0.0
2018-Apr-25 09:00N 38°55' W 090°13'0 0.3
2018-Apr-25 08:30N 38°55' W 090°14'3 5.9
2018-Apr-25 08:00N 38°55' W 090°17'4 7.5
2018-Apr-25 07:30N 38°57' W 090°22'3 6.8
2018-Apr-25 07:00N 38°58' W 090°26'3 6.4
2018-Apr-25 06:30N 38°56' W 090°30'3 6.6
2018-Apr-25 06:00N 38°53' W 090°32'3 6.5
2018-Apr-25 05:30N 38°52' W 090°36'3 6.6
2018-Apr-25 05:00N 38°55' W 090°38'3 6.8
2018-Apr-25 04:30N 38°58' W 090°40'3 5.1
2018-Apr-25 04:00N 39°00' W 090°41'0 0.4
2018-Apr-25 03:30N 39°00' W 090°41'0 0.0
2018-Apr-25 03:00N 39°00' W 090°41'0 0.3
2018-Apr-25 02:30N 39°00' W 090°41'0 0.0
2018-Apr-25 02:00N 39°00' W 090°41'0 0.1
2018-Apr-25 01:30N 39°00' W 090°41'0 0.4
2018-Apr-25 01:00N 39°01' W 090°42'0 0.1
2018-Apr-25 00:30N 39°01' W 090°42'2 5.0
2018-Apr-25 00:00N 39°03' W 090°43'0 0.1
2018-Apr-24 23:30N 39°03' W 090°43'6 4.5
2018-Apr-24 22:15N 39°08' W 090°43'  
2018-Apr-18 14:14N 39°10' W 090°43'1 5.0
2018-Apr-18 14:00N 39°08' W 090°42'3 5.2
2018-Apr-18 13:30N 39°06' W 090°41'3 4.9
2018-Apr-18 13:00N 39°04' W 090°42'2 4.6
2018-Apr-18 12:30N 39°02' W 090°42'1 3.0
2018-Apr-18 12:00N 39°00' W 090°41'0 0.3
2018-Apr-18 11:30N 39°00' W 090°41'0 0.0
2018-Apr-18 11:00N 39°00' W 090°41'0 0.7
2018-Apr-18 10:30N 38°60' W 090°41'2 4.3
2018-Apr-18 10:00N 38°58' W 090°40'0 0.7
2018-Apr-18 09:28N 38°57' W 090°40'0 0.0
2018-Apr-18 08:58N 38°57' W 090°40'1 2.2
2018-Apr-18 08:30N 38°56' W 090°40'3 5.1
2018-Apr-18 08:00N 38°54' W 090°38'2 3.3
2018-Apr-18 07:30N 38°53' W 090°37'0 0.1
2018-Apr-18 07:00N 38°53' W 090°37'2 4.7
2018-Apr-18 06:30N 38°52' W 090°34'3 5.4
2018-Apr-18 06:00N 38°54' W 090°31'3 5.2
2018-Apr-18 05:30N 38°56' W 090°30'2 4.5
2018-Apr-18 05:00N 38°57' W 090°28'2 4.9
2018-Apr-18 04:30N 38°58' W 090°25'3 5.4
2018-Apr-18 04:00N 38°57' W 090°21'3 5.6
2018-Apr-18 03:30N 38°55' W 090°18'3 5.8
2018-Apr-18 03:00N 38°55' W 090°14'3 5.4
2018-Apr-18 02:30N 38°53' W 090°12'2 4.8
2018-Apr-18 02:00N 38°52' W 090°09'0 0.7
2018-Apr-18 01:30N 38°52' W 090°09'2 3.1
2018-Apr-18 01:00N 38°51' W 090°07'2 3.4
2018-Apr-18 00:30N 38°50' W 090°07'2 3.1
2018-Apr-18 00:00N 38°48' W 090°07'3 5.8
2018-Apr-17 23:28N 38°45' W 090°09'3 4.8
2018-Apr-17 22:56N 38°43' W 090°10'1 1.7
2018-Apr-17 22:16N 38°42' W 090°11'0 0.5
2018-Apr-17 21:59N 38°42' W 090°11'1 2.3
2018-Apr-17 21:30N 38°41' W 090°11'2 4.6
2018-Apr-17 20:59N 38°38' W 090°11'0 0.2
2018-Apr-17 20:28N 38°38' W 090°11'0 0.0
2018-Apr-17 19:59N 38°38' W 090°11'0 0.0
2018-Apr-17 19:27N 38°38' W 090°11'0 0.0
2018-Apr-17 18:08N 38°38' W 090°11'0 0.0
2018-Apr-17 17:56N 38°38' W 090°11'0 0.1
2018-Apr-17 17:27N 38°38' W 090°11'  

Dump ship's entire track history